createdAt,value
2019-02-15T00:00:43.268Z,79.27
2019-02-15T00:03:12.910Z,79.28
2019-02-15T00:05:42.227Z,79.34
2019-02-15T00:08:11.587Z,79.46
2019-02-15T00:10:40.950Z,79.60
2019-02-15T00:13:13.531Z,79.72
2019-02-15T00:15:41.358Z,79.76
2019-02-15T00:18:15.702Z,79.78
2019-02-15T00:20:46.774Z,79.57
2019-02-15T00:23:16.432Z,79.42
2019-02-15T00:25:45.777Z,79.15
2019-02-15T00:28:15.103Z,78.90
2019-02-15T00:30:44.729Z,79.62
2019-02-15T00:33:14.036Z,79.01
2019-02-15T00:35:43.633Z,79.64
2019-02-15T00:38:12.998Z,79.43
2019-02-15T00:40:42.566Z,79.46
2019-02-15T00:43:11.903Z,79.80
2019-02-15T00:45:43.138Z,79.92
2019-02-15T00:48:17.090Z,80.54
2019-02-15T00:50:48.300Z,80.27
2019-02-15T00:53:35.418Z,80.62
2019-02-15T00:56:07.463Z,80.44
2019-02-15T00:58:38.705Z,80.59
2019-02-15T01:01:10.031Z,80.27
2019-02-15T01:03:46.955Z,80.24
2019-02-15T01:06:20.870Z,80.63
2019-02-15T01:09:09.650Z,79.90
2019-02-15T01:11:49.823Z,80.20
2019-02-15T01:14:19.408Z,80.03
2019-02-15T01:16:49.121Z,80.43
2019-02-15T01:19:18.728Z,80.64
2019-02-15T01:21:48.571Z,80.75
2019-02-15T01:24:17.920Z,80.70
2019-02-15T01:26:48.900Z,80.67
2019-02-15T01:29:19.925Z,80.62
2019-02-15T01:32:06.795Z,80.47
2019-02-15T01:34:37.747Z,80.53
2019-02-15T01:37:17.510Z,80.69
2019-02-15T01:39:48.477Z,79.78
2019-02-15T01:42:29.052Z,79.52
2019-02-15T01:45:00.539Z,79.58
2019-02-15T01:47:30.007Z,79.95
2019-02-15T01:50:00.922Z,80.39
2019-02-15T01:52:30.297Z,80.87
2019-02-15T01:54:59.627Z,81.27
2019-02-15T01:57:28.971Z,81.51
2019-02-15T01:59:58.338Z,81.70
2019-02-15T02:02:29.676Z,81.62
2019-02-15T02:04:58.991Z,81.70
2019-02-15T02:07:28.420Z,81.72
2019-02-15T02:09:58.196Z,81.84
2019-02-15T02:12:27.523Z,81.35
2019-02-15T02:14:56.879Z,81.39
2019-02-15T02:17:26.607Z,81.30
2019-02-15T02:19:55.993Z,81.52
2019-02-15T02:22:25.330Z,81.43
2019-02-15T02:24:54.652Z,80.98
2019-02-15T02:27:24.002Z,80.93
2019-02-15T02:29:53.426Z,81.11
2019-02-15T02:32:23.126Z,81.36
2019-02-15T02:34:59.895Z,81.64
2019-02-15T02:37:29.336Z,81.96
2019-02-15T02:39:59.014Z,81.64
2019-02-15T02:42:28.611Z,81.86
2019-02-15T02:44:58.004Z,81.97
2019-02-15T02:47:27.422Z,81.87
2019-02-15T02:49:56.754Z,81.95
2019-02-15T02:52:26.179Z,81.98
2019-02-15T02:54:55.578Z,82.12
2019-02-15T02:57:25.334Z,82.11
2019-02-15T02:59:54.663Z,82.00
2019-02-15T03:02:24.049Z,82.10
2019-02-15T03:04:53.363Z,82.23
2019-02-15T03:07:23.055Z,82.20
2019-02-15T03:09:52.510Z,81.97
2019-02-15T03:12:22.322Z,82.16
2019-02-15T03:14:51.637Z,81.89
2019-02-15T03:17:21.492Z,81.76
2019-02-15T03:19:50.896Z,82.04
2019-02-15T03:22:20.725Z,81.83
2019-02-15T03:24:50.058Z,82.08
2019-02-15T03:27:19.438Z,82.07
2019-02-15T03:29:49.119Z,82.18
2019-02-15T03:32:18.437Z,82.10
2019-02-15T03:34:47.736Z,81.81
2019-02-15T03:37:24.767Z,82.37
2019-02-15T03:39:55.770Z,82.54
2019-02-15T03:42:25.250Z,82.62
2019-02-15T03:44:54.639Z,82.55
2019-02-15T03:47:24.844Z,82.08
2019-02-15T03:49:54.187Z,81.58
2019-02-15T03:52:23.512Z,81.84
2019-02-15T03:54:52.896Z,82.05
2019-02-15T03:57:22.263Z,81.93
2019-02-15T03:59:52.215Z,82.30
2019-02-15T04:02:21.646Z,82.40
2019-02-15T04:04:51.040Z,82.65
2019-02-15T04:07:20.417Z,82.46
2019-02-15T04:09:50.122Z,82.25
2019-02-15T04:12:19.439Z,82.23
2019-02-15T04:14:48.775Z,81.93
2019-02-15T04:17:18.108Z,82.29
2019-02-15T04:19:48.217Z,82.71
2019-02-15T04:22:17.536Z,82.30
2019-02-15T04:24:47.109Z,82.39
2019-02-15T04:27:16.506Z,82.36
2019-02-15T04:29:46.113Z,82.27
2019-02-15T04:32:16.034Z,82.40
2019-02-15T04:34:45.328Z,82.45
2019-02-15T04:37:14.693Z,82.62
2019-02-15T04:39:44.381Z,82.66
2019-02-15T04:42:13.973Z,82.96
2019-02-15T04:44:43.564Z,83.05
2019-02-15T04:47:12.961Z,83.25
2019-02-15T04:49:42.398Z,83.16
2019-02-15T04:52:11.929Z,83.39
2019-02-15T04:54:41.770Z,83.41
2019-02-15T04:57:11.420Z,84.49
2019-02-15T04:59:41.205Z,87.69
2019-02-15T05:02:10.824Z,89.16
2019-02-15T05:04:40.427Z,88.90
2019-02-15T05:07:09.737Z,87.04
2019-02-15T05:09:44.254Z,83.07
2019-02-15T05:12:13.285Z,81.61
2019-02-15T05:14:52.465Z,81.55
2019-02-15T05:17:14.223Z,81.68
2019-02-15T05:19:43.677Z,82.00
2019-02-15T05:22:12.995Z,82.07
2019-02-15T05:24:42.321Z,82.39
2019-02-15T05:27:11.686Z,82.73
2019-02-15T05:29:41.077Z,82.95
2019-02-15T05:32:10.837Z,82.82
2019-02-15T05:34:40.404Z,82.89
2019-02-15T05:37:09.730Z,82.98
2019-02-15T05:39:39.068Z,82.66
2019-02-15T05:42:08.424Z,82.69
2019-02-15T05:44:38.491Z,82.22
2019-02-15T05:47:08.288Z,82.66
2019-02-15T05:49:37.984Z,82.87
2019-02-15T05:52:07.919Z,82.65
2019-02-15T05:54:37.278Z,83.03
2019-02-15T05:57:06.590Z,83.13
2019-02-15T05:59:35.890Z,83.30
2019-02-15T06:02:05.618Z,83.33
2019-02-15T06:04:35.023Z,83.19
2019-02-15T06:07:04.358Z,83.10
2019-02-15T06:09:33.770Z,83.23
2019-02-15T06:12:03.631Z,83.34
2019-02-15T06:14:33.426Z,83.22
2019-02-15T06:17:03.187Z,83.29
2019-02-15T06:19:33.435Z,83.31
2019-02-15T06:22:04.268Z,83.39
2019-02-15T06:24:33.587Z,83.41
2019-02-15T06:27:02.989Z,83.27
2019-02-15T06:29:32.417Z,83.44
2019-02-15T06:32:02.165Z,83.59
2019-02-15T06:34:31.473Z,83.41
2019-02-15T06:37:03.630Z,83.27
2019-02-15T06:39:33.047Z,82.54
2019-02-15T06:42:02.725Z,82.29
2019-02-15T06:44:32.070Z,82.24
2019-02-15T06:47:01.440Z,82.52
2019-02-15T06:49:31.171Z,82.44
2019-02-15T06:52:02.047Z,82.18
2019-02-15T06:54:31.761Z,82.25
2019-02-15T06:57:01.385Z,81.98
2019-02-15T06:59:45.512Z,81.94
2019-02-15T07:02:28.372Z,81.68
2019-02-15T07:05:08.356Z,81.35
2019-02-15T07:07:38.004Z,81.50
2019-02-15T07:10:08.220Z,81.42
2019-02-15T07:12:37.834Z,81.61
2019-02-15T07:15:08.352Z,81.62
2019-02-15T07:17:37.972Z,81.46
2019-02-15T07:20:10.051Z,81.23
2019-02-15T07:22:39.383Z,80.70
2019-02-15T07:25:11.819Z,80.75
2019-02-15T07:27:41.165Z,80.86
2019-02-15T07:30:15.642Z,80.64
2019-02-15T07:32:45.087Z,80.26
2019-02-15T07:35:14.733Z,79.93
2019-02-15T07:37:44.154Z,79.39
2019-02-15T07:40:13.840Z,79.54
2019-02-15T07:42:43.156Z,79.52
2019-02-15T07:45:12.486Z,79.07
2019-02-15T07:47:42.151Z,78.61
2019-02-15T07:50:15.507Z,78.47
2019-02-15T07:52:44.904Z,78.64
2019-02-15T07:55:14.559Z,78.46
2019-02-15T07:57:43.918Z,78.27
2019-02-15T08:00:15.148Z,78.31
2019-02-15T08:02:44.817Z,78.25
2019-02-15T08:05:14.151Z,77.09
2019-02-15T08:07:43.845Z,76.16
2019-02-15T08:10:13.503Z,76.10
2019-02-15T08:12:43.128Z,75.56
2019-02-15T08:15:12.536Z,75.26
2019-02-15T08:17:41.938Z,75.32
2019-02-15T08:20:12.577Z,75.30
2019-02-15T08:22:42.018Z,75.47
2019-02-15T08:25:11.371Z,75.75
2019-02-15T08:27:41.006Z,75.32
2019-02-15T08:30:11.907Z,74.30
2019-02-15T08:32:41.524Z,73.79
2019-02-15T08:35:11.947Z,73.94
2019-02-15T08:37:41.322Z,74.11
2019-02-15T08:40:11.801Z,74.27
2019-02-15T08:42:41.474Z,73.78
2019-02-15T08:45:13.325Z,72.51
2019-02-15T08:47:42.951Z,72.08
2019-02-15T08:50:13.122Z,72.04
2019-02-15T08:52:42.731Z,72.17
2019-02-15T08:55:12.996Z,72.12
2019-02-15T08:57:42.603Z,72.04
2019-02-15T09:00:13.558Z,71.83
2019-02-15T09:02:42.887Z,69.99
2019-02-15T09:05:13.240Z,69.60
2019-02-15T09:07:42.601Z,69.75
2019-02-15T09:10:13.885Z,69.46
2019-02-15T09:12:43.487Z,68.98
2019-02-15T09:15:19.785Z,69.45
2019-02-15T09:17:49.381Z,69.60
2019-02-15T09:20:18.680Z,69.54
2019-02-15T09:22:48.400Z,69.17
2019-02-15T09:25:17.841Z,69.00
2019-02-15T09:27:48.811Z,68.46
2019-02-15T09:30:18.192Z,67.87
2019-02-15T09:32:47.774Z,66.04
2019-02-15T09:35:17.163Z,65.71
2019-02-15T09:37:46.965Z,65.51
2019-02-15T09:40:16.375Z,65.98
2019-02-15T09:42:45.681Z,64.94
2019-02-15T09:45:15.360Z,64.93
2019-02-15T09:47:44.956Z,64.91
2019-02-15T09:50:14.337Z,64.49
2019-02-15T09:52:44.004Z,63.12
2019-02-15T09:55:13.693Z,62.34
2019-02-15T09:57:43.394Z,61.95
2019-02-15T10:00:12.750Z,61.23
2019-02-15T10:02:42.333Z,61.99
2019-02-15T10:05:12.317Z,61.69
2019-02-15T10:07:41.669Z,60.67
2019-02-15T10:10:11.641Z,60.82
2019-02-15T10:12:40.995Z,60.19
2019-02-15T10:15:11.719Z,58.67
2019-02-15T10:17:41.479Z,57.25
2019-02-15T10:20:10.802Z,55.07
2019-02-15T10:22:40.136Z,50.67
2019-02-15T10:25:10.657Z,48.32
2019-02-15T10:27:40.418Z,46.28
2019-02-15T10:30:13.676Z,42.45
2019-02-15T10:32:43.045Z,41.58
2019-02-15T10:35:12.362Z,40.17
2019-02-15T10:37:41.707Z,38.25
2019-02-15T10:40:12.425Z,37.59
2019-02-15T10:42:42.018Z,35.26
2019-02-15T10:45:16.197Z,34.67
2019-02-15T10:47:45.817Z,34.01
2019-02-15T10:50:15.382Z,32.94
2019-02-15T10:52:44.984Z,32.44
2019-02-15T10:55:14.304Z,31.83
2019-02-15T10:57:43.623Z,31.09
2019-02-15T11:00:18.399Z,30.76
2019-02-15T11:02:48.112Z,31.76
2019-02-15T11:05:18.824Z,31.09
2019-02-15T11:07:48.154Z,28.85
2019-02-15T11:10:17.467Z,29.59
2019-02-15T11:12:46.780Z,30.58
2019-02-15T11:15:17.901Z,29.92
2019-02-15T11:17:47.483Z,29.68
2019-02-15T11:20:18.444Z,31.15
2019-02-15T11:22:48.151Z,29.78
2019-02-15T11:25:17.470Z,28.43
2019-02-15T11:27:46.901Z,27.47
2019-02-15T11:30:17.184Z,27.32
2019-02-15T11:32:46.967Z,26.62
2019-02-15T11:35:16.257Z,25.21
2019-02-15T11:37:45.983Z,25.96
2019-02-15T11:40:16.415Z,24.97
2019-02-15T11:42:46.115Z,24.46
2019-02-15T11:45:16.028Z,24.91
2019-02-15T11:47:45.346Z,24.31
2019-02-15T11:50:15.635Z,24.55
2019-02-15T11:52:45.399Z,25.09
2019-02-15T11:55:15.074Z,24.83
2019-02-15T11:57:44.818Z,24.56
2019-02-15T12:00:25.776Z,23.65
2019-02-15T12:02:55.113Z,24.55
2019-02-15T12:05:24.750Z,23.87
2019-02-15T12:07:54.076Z,23.93
2019-02-15T12:10:23.430Z,24.30
2019-02-15T12:12:54.197Z,23.78
2019-02-15T12:15:23.899Z,23.06
2019-02-15T12:17:53.522Z,22.87
2019-02-15T12:20:22.855Z,22.95
2019-02-15T12:22:52.172Z,22.91
2019-02-15T12:25:21.700Z,23.12
2019-02-15T12:27:51.171Z,22.64
2019-02-15T12:30:21.796Z,23.55
2019-02-15T12:32:51.734Z,23.83
2019-02-15T12:35:21.063Z,24.25
2019-02-15T12:37:50.671Z,23.81
2019-02-15T12:40:20.019Z,24.45
2019-02-15T12:42:49.624Z,23.32
2019-02-15T12:45:19.388Z,23.37
2019-02-15T12:47:48.750Z,23.41
2019-02-15T12:50:21.851Z,24.37
2019-02-15T12:52:51.424Z,25.14
2019-02-15T12:55:21.295Z,25.64
2019-02-15T12:57:50.626Z,27.17
2019-02-15T13:00:20.019Z,28.17
2019-02-15T13:02:49.366Z,28.81
2019-02-15T13:05:19.105Z,29.30
2019-02-15T13:07:48.829Z,31.35
2019-02-15T13:10:23.151Z,31.22
2019-02-15T13:12:52.510Z,31.91
2019-02-15T13:15:21.816Z,32.51
2019-02-15T13:17:51.445Z,32.90
2019-02-15T13:20:20.803Z,32.57
2019-02-15T13:22:50.444Z,32.94
2019-02-15T13:25:19.782Z,33.08
2019-02-15T13:27:49.190Z,32.93
2019-02-15T13:30:18.832Z,33.36
2019-02-15T13:32:48.413Z,33.32
2019-02-15T13:35:25.231Z,33.90
2019-02-15T13:37:54.542Z,33.42
2019-02-15T13:40:24.283Z,34.67
2019-02-15T13:42:53.722Z,33.34
2019-02-15T13:45:23.354Z,33.53
2019-02-15T13:47:52.959Z,34.28
2019-02-15T13:50:22.791Z,33.19
2019-02-15T13:52:52.117Z,33.29
2019-02-15T13:55:21.775Z,33.70
2019-02-15T13:57:51.140Z,33.10
2019-02-15T14:00:20.465Z,33.61
2019-02-15T14:02:50.209Z,33.06
2019-02-15T14:05:19.509Z,33.40
2019-02-15T14:07:48.876Z,33.07
2019-02-15T14:10:18.204Z,33.35
2019-02-15T14:12:47.569Z,33.25
2019-02-15T14:15:16.912Z,31.96
2019-02-15T14:17:48.453Z,31.69
2019-02-15T14:20:17.261Z,32.65
2019-02-15T14:22:46.886Z,32.03
2019-02-15T14:25:16.200Z,32.05
2019-02-15T14:27:45.544Z,31.71
2019-02-15T14:30:15.779Z,30.96
2019-02-15T14:32:45.159Z,31.08
2019-02-15T14:35:15.494Z,31.39
2019-02-15T14:37:44.846Z,30.79
2019-02-15T14:40:15.433Z,30.75
2019-02-15T14:42:44.776Z,30.71
2019-02-15T14:45:14.774Z,30.80
2019-02-15T14:47:53.935Z,30.86
2019-02-15T14:50:15.624Z,30.43
2019-02-15T14:52:45.304Z,30.67
2019-02-15T14:55:14.907Z,30.03
2019-02-15T14:57:44.381Z,29.93
2019-02-15T15:00:15.363Z,29.81
2019-02-15T15:02:44.975Z,29.24
2019-02-15T15:05:14.483Z,30.24
2019-02-15T15:07:43.831Z,30.40
2019-02-15T15:10:13.438Z,29.93
2019-02-15T15:12:43.078Z,30.16
2019-02-15T15:15:16.060Z,30.86
2019-02-15T15:17:45.400Z,30.46
2019-02-15T15:20:14.939Z,30.37
2019-02-15T15:22:44.678Z,31.80
2019-02-15T15:25:15.821Z,30.95
2019-02-15T15:27:45.525Z,29.91
2019-02-15T15:30:16.337Z,31.03
2019-02-15T15:32:45.961Z,30.28
2019-02-15T15:35:15.394Z,29.80
2019-02-15T15:37:45.070Z,30.95
2019-02-15T15:40:18.194Z,31.62
2019-02-15T15:42:47.484Z,32.08
2019-02-15T15:45:16.838Z,32.57
2019-02-15T15:47:46.237Z,33.00
2019-02-15T15:50:15.906Z,32.14
2019-02-15T15:52:45.593Z,33.32
2019-02-15T15:55:15.087Z,33.76
2019-02-15T15:57:44.805Z,33.50
2019-02-15T16:00:16.044Z,33.87
2019-02-15T16:02:45.378Z,33.96
2019-02-15T16:05:14.728Z,34.42
2019-02-15T16:07:44.353Z,34.88
2019-02-15T16:10:15.377Z,34.39
2019-02-15T16:12:44.702Z,34.63
2019-02-15T16:15:15.093Z,35.05
2019-02-15T16:17:44.424Z,35.22
2019-02-15T16:20:14.855Z,35.64
2019-02-15T16:22:44.222Z,36.28
2019-02-15T16:25:13.848Z,36.94
2019-02-15T16:27:43.744Z,36.62
2019-02-15T16:30:15.491Z,36.28
2019-02-15T16:32:44.820Z,36.73
2019-02-15T16:35:14.463Z,37.32
2019-02-15T16:37:43.848Z,37.93
2019-02-15T16:40:16.744Z,38.23
2019-02-15T16:42:46.135Z,38.92
2019-02-15T16:45:16.378Z,38.53
2019-02-15T16:47:45.977Z,37.74
2019-02-15T16:50:15.577Z,39.68
2019-02-15T16:52:44.983Z,40.15
2019-02-15T16:55:14.584Z,40.56
2019-02-15T16:57:44.376Z,40.54
2019-02-15T17:00:15.195Z,41.68
2019-02-15T17:02:44.534Z,41.06
2019-02-15T17:05:14.148Z,41.47
2019-02-15T17:07:43.784Z,43.49
2019-02-15T17:10:13.354Z,43.13
2019-02-15T17:12:43.494Z,43.08
2019-02-15T17:15:14.956Z,43.48
2019-02-15T17:17:44.574Z,43.30
2019-02-15T17:20:14.761Z,43.36
2019-02-15T17:22:44.089Z,43.87
2019-02-15T17:25:13.804Z,44.51
2019-02-15T17:27:43.138Z,44.70
2019-02-15T17:30:12.987Z,45.09
2019-02-15T17:32:42.371Z,45.54
2019-02-15T17:35:12.711Z,45.87
2019-02-15T17:37:42.326Z,46.32
2019-02-15T17:40:15.839Z,46.73
2019-02-15T17:42:45.151Z,46.87
2019-02-15T17:45:14.559Z,47.33
2019-02-15T17:47:44.139Z,48.01
2019-02-15T17:50:13.953Z,47.81
2019-02-15T17:52:44.163Z,49.03
2019-02-15T17:55:14.415Z,49.57
2019-02-15T17:57:44.581Z,49.45
2019-02-15T18:00:17.587Z,49.63
2019-02-15T18:02:48.272Z,49.70
2019-02-15T18:05:19.068Z,49.72
2019-02-15T18:07:52.104Z,49.96
2019-02-15T18:10:23.454Z,50.40
2019-02-15T18:12:53.232Z,51.25
2019-02-15T18:15:28.114Z,51.72
2019-02-15T18:17:56.988Z,52.28
2019-02-15T18:20:26.567Z,52.41
2019-02-15T18:22:56.049Z,52.77
2019-02-15T18:25:25.658Z,53.03
2019-02-15T18:27:54.995Z,53.36
2019-02-15T18:30:24.653Z,53.91
2019-02-15T18:32:54.134Z,54.27
2019-02-15T18:35:23.552Z,54.46
2019-02-15T18:37:53.217Z,54.20
2019-02-15T18:40:22.796Z,54.71
2019-02-15T18:42:52.418Z,54.44
2019-02-15T18:45:22.086Z,54.00
2019-02-15T18:47:51.564Z,54.29
2019-02-15T18:50:21.384Z,54.76
2019-02-15T18:52:50.711Z,55.37
2019-02-15T18:55:20.055Z,55.47
2019-02-15T18:57:49.748Z,55.50
2019-02-15T19:00:19.159Z,56.09
2019-02-15T19:02:53.466Z,56.44
2019-02-15T19:05:23.111Z,56.43
2019-02-15T19:07:52.779Z,56.50
2019-02-15T19:10:23.908Z,56.61
2019-02-15T19:12:53.580Z,56.84
2019-02-15T19:15:23.148Z,56.79
2019-02-15T19:17:52.797Z,57.17
2019-02-15T19:20:23.076Z,56.98
2019-02-15T19:22:52.640Z,57.12
2019-02-15T19:25:22.042Z,57.21
2019-02-15T19:27:51.626Z,57.09
2019-02-15T19:30:34.263Z,57.34
2019-02-15T19:33:03.843Z,57.48
2019-02-15T19:35:33.214Z,57.33
2019-02-15T19:38:02.857Z,57.41
2019-02-15T19:40:32.184Z,57.49
2019-02-15T19:43:08.821Z,57.92
2019-02-15T19:45:38.128Z,57.93
2019-02-15T19:48:07.509Z,57.93
2019-02-15T19:50:36.807Z,57.75
2019-02-15T19:53:06.381Z,57.70
2019-02-15T19:55:36.131Z,58.07
2019-02-15T19:58:05.756Z,58.13
2019-02-15T20:00:35.721Z,57.76
2019-02-15T20:03:05.488Z,57.75
2019-02-15T20:05:35.159Z,58.19
2019-02-15T20:08:04.773Z,58.76
2019-02-15T20:10:34.358Z,59.02
2019-02-15T20:13:04.342Z,58.93
2019-02-15T20:15:33.757Z,59.08
2019-02-15T20:18:03.439Z,59.55
2019-02-15T20:20:33.079Z,59.55
2019-02-15T20:23:02.680Z,59.53
2019-02-15T20:25:32.285Z,59.92
2019-02-15T20:28:01.848Z,59.72
2019-02-15T20:30:32.353Z,60.07
2019-02-15T20:33:01.970Z,60.22
2019-02-15T20:35:31.584Z,60.44
2019-02-15T20:38:00.933Z,60.61
2019-02-15T20:40:30.552Z,60.62
2019-02-15T20:43:00.224Z,60.57
2019-02-15T20:45:29.868Z,60.81
2019-02-15T20:47:59.507Z,60.63
2019-02-15T20:50:29.225Z,60.81
2019-02-15T20:52:58.549Z,60.82
2019-02-15T20:55:28.161Z,60.89
2019-02-15T20:57:57.555Z,61.49
2019-02-15T21:00:29.531Z,61.58
2019-02-15T21:02:59.135Z,61.61
2019-02-15T21:05:28.838Z,61.65
2019-02-15T21:07:58.450Z,61.54
2019-02-15T21:10:28.181Z,61.59
2019-02-15T21:12:57.548Z,61.46
2019-02-15T21:15:27.143Z,61.54
2019-02-15T21:17:56.476Z,61.61
2019-02-15T21:20:26.085Z,62.23
2019-02-15T21:22:55.650Z,62.34
2019-02-15T21:25:25.247Z,62.53
2019-02-15T21:27:54.911Z,62.66
2019-02-15T21:30:24.538Z,62.84
2019-02-15T21:32:53.873Z,62.92
2019-02-15T21:35:23.277Z,62.83
2019-02-15T21:37:52.948Z,62.50
2019-02-15T21:40:22.298Z,62.23
2019-02-15T21:42:52.261Z,62.46
2019-02-15T21:45:21.734Z,62.56
2019-02-15T21:47:51.410Z,62.48
2019-02-15T21:50:21.007Z,62.44
2019-02-15T21:52:50.657Z,62.99
2019-02-15T21:55:20.262Z,63.43
2019-02-15T21:57:49.866Z,63.12
2019-02-15T22:00:25.623Z,63.52
2019-02-15T22:02:54.967Z,63.53
2019-02-15T22:05:24.366Z,63.70
2019-02-15T22:07:53.975Z,63.64
2019-02-15T22:10:23.374Z,63.75
2019-02-15T22:12:52.952Z,64.17
2019-02-15T22:15:22.535Z,63.80
2019-02-15T22:17:51.898Z,63.76
2019-02-15T22:20:26.688Z,64.09
2019-02-15T22:22:53.363Z,63.88
2019-02-15T22:25:22.971Z,64.15
2019-02-15T22:27:52.328Z,64.06
2019-02-15T22:30:21.835Z,64.20
2019-02-15T22:32:51.541Z,64.14
2019-02-15T22:35:20.876Z,64.15
2019-02-15T22:37:50.209Z,64.76
2019-02-15T22:40:34.655Z,64.96
2019-02-15T22:43:10.688Z,65.00
2019-02-15T22:45:40.329Z,64.73
2019-02-15T22:48:09.908Z,64.64
2019-02-15T22:50:39.518Z,65.04
2019-02-15T22:53:09.168Z,65.14
2019-02-15T22:55:38.509Z,65.07
2019-02-15T22:58:07.826Z,65.23
2019-02-15T23:00:51.846Z,65.39
2019-02-15T23:03:27.213Z,65.39
2019-02-15T23:05:56.906Z,65.88
2019-02-15T23:08:26.566Z,66.16
2019-02-15T23:10:56.267Z,66.46
2019-02-15T23:13:25.846Z,66.32
2019-02-15T23:15:55.421Z,66.31
2019-02-15T23:18:25.030Z,65.78
2019-02-15T23:20:54.704Z,66.39
2019-02-15T23:23:24.333Z,66.51
2019-02-15T23:25:53.649Z,66.72
2019-02-15T23:28:22.958Z,66.94
2019-02-15T23:30:52.313Z,66.46
2019-02-15T23:33:21.665Z,67.07
2019-02-15T23:35:51.014Z,67.14
2019-02-15T23:38:20.411Z,67.24
2019-02-15T23:40:50.002Z,67.50
2019-02-15T23:43:19.347Z,67.21
2019-02-15T23:45:48.997Z,67.32
2019-02-15T23:48:18.599Z,67.74
2019-02-15T23:50:54.304Z,67.86
2019-02-15T23:53:19.693Z,67.28
2019-02-15T23:55:49.120Z,67.11
2019-02-15T23:58:18.473Z,67.37
